sensor_id;sensor_type;location;lat;lon;timestamp;P1;durP1;ratioP1;P2;durP2;ratioP2
64633;SDS011;51043;52.406;9.690;2023-04-06T00:00:57;16.60;;;11.80;;
64633;SDS011;51043;52.406;9.690;2023-04-06T00:03:26;14.40;;;11.93;;
64633;SDS011;51043;52.406;9.690;2023-04-06T00:05:54;14.93;;;11.83;;
64633;SDS011;51043;52.406;9.690;2023-04-06T00:08:24;15.07;;;11.30;;
64633;SDS011;51043;52.406;9.690;2023-04-06T00:10:53;13.60;;;11.23;;
64633;SDS011;51043;52.406;9.690;2023-04-06T00:13:21;13.07;;;11.37;;
64633;SDS011;51043;52.406;9.690;2023-04-06T00:15:49;14.47;;;12.50;;
64633;SDS011;51043;52.406;9.690;2023-04-06T00:18:17;16.73;;;12.63;;
64633;SDS011;51043;52.406;9.690;2023-04-06T00:20:46;18.53;;;12.50;;
64633;SDS011;51043;52.406;9.690;2023-04-06T00:23:14;15.37;;;11.67;;
64633;SDS011;51043;52.406;9.690;2023-04-06T00:25:45;14.47;;;11.40;;
64633;SDS011;51043;52.406;9.690;2023-04-06T00:28:13;17.13;;;12.13;;
64633;SDS011;51043;52.406;9.690;2023-04-06T00:30:41;12.37;;;11.07;;
64633;SDS011;51043;52.406;9.690;2023-04-06T00:33:09;13.20;;;11.70;;
64633;SDS011;51043;52.406;9.690;2023-04-06T00:35:40;18.03;;;11.93;;
64633;SDS011;51043;52.406;9.690;2023-04-06T00:38:08;19.93;;;10.77;;
64633;SDS011;51043;52.406;9.690;2023-04-06T00:40:36;13.07;;;10.87;;
64633;SDS011;51043;52.406;9.690;2023-04-06T00:43:07;13.03;;;10.10;;
64633;SDS011;51043;52.406;9.690;2023-04-06T00:45:35;12.70;;;9.97;;
64633;SDS011;51043;52.406;9.690;2023-04-06T00:48:05;12.30;;;9.97;;
64633;SDS011;51043;52.406;9.690;2023-04-06T00:50:33;12.10;;;9.33;;
64633;SDS011;51043;52.406;9.690;2023-04-06T00:53:02;11.90;;;9.83;;
64633;SDS011;51043;52.406;9.690;2023-04-06T00:55:30;12.23;;;9.43;;
64633;SDS011;51043;52.406;9.690;2023-04-06T00:57:59;13.37;;;9.53;;
64633;SDS011;51043;52.406;9.690;2023-04-06T01:00:44;12.60;;;8.40;;
64633;SDS011;51043;52.406;9.690;2023-04-06T01:03:16;9.63;;;8.10;;
64633;SDS011;51043;52.406;9.690;2023-04-06T01:05:45;16.63;;;8.67;;
64633;SDS011;51043;52.406;9.690;2023-04-06T01:08:20;10.10;;;7.33;;
64633;SDS011;51043;52.406;9.690;2023-04-06T01:10:52;11.30;;;7.63;;
64633;SDS011;51043;52.406;9.690;2023-04-06T01:13:27;14.83;;;8.37;;
64633;SDS011;51043;52.406;9.690;2023-04-06T01:16:04;10.03;;;6.97;;
64633;SDS011;51043;52.406;9.690;2023-04-06T01:18:57;14.27;;;7.30;;
64633;SDS011;51043;52.406;9.690;2023-04-06T01:21:29;9.83;;;7.47;;
64633;SDS011;51043;52.406;9.690;2023-04-06T01:24:15;8.77;;;6.87;;
64633;SDS011;51043;52.406;9.690;2023-04-06T01:27:10;8.63;;;7.10;;
64633;SDS011;51043;52.406;9.690;2023-04-06T01:30:02;12.30;;;6.83;;
64633;SDS011;51043;52.406;9.690;2023-04-06T01:32:56;7.43;;;6.33;;
64633;SDS011;51043;52.406;9.690;2023-04-06T01:35:42;10.07;;;6.10;;
64633;SDS011;51043;52.406;9.690;2023-04-06T01:38:14;10.27;;;6.10;;
64633;SDS011;51043;52.406;9.690;2023-04-06T01:40:45;8.63;;;5.87;;
64633;SDS011;51043;52.406;9.690;2023-04-06T01:43:13;8.57;;;6.07;;
64633;SDS011;51043;52.406;9.690;2023-04-06T01:46:03;11.17;;;6.37;;
64633;SDS011;51043;52.406;9.690;2023-04-06T01:48:38;7.67;;;5.87;;
64633;SDS011;51043;52.406;9.690;2023-04-06T01:51:38;8.03;;;6.07;;
64633;SDS011;51043;52.406;9.690;2023-04-06T01:54:10;8.77;;;5.90;;
64633;SDS011;51043;52.406;9.690;2023-04-06T01:56:55;8.77;;;5.80;;
64633;SDS011;51043;52.406;9.690;2023-04-06T01:59:41;9.03;;;5.70;;
64633;SDS011;51043;52.406;9.690;2023-04-06T02:02:17;8.30;;;5.73;;
64633;SDS011;51043;52.406;9.690;2023-04-06T02:04:55;8.47;;;6.50;;
64633;SDS011;51043;52.406;9.690;2023-04-06T02:07:23;8.70;;;6.43;;
64633;SDS011;51043;52.406;9.690;2023-04-06T02:09:53;9.10;;;6.37;;
64633;SDS011;51043;52.406;9.690;2023-04-06T02:12:32;7.07;;;5.70;;
64633;SDS011;51043;52.406;9.690;2023-04-06T02:15:00;7.13;;;5.70;;
64633;SDS011;51043;52.406;9.690;2023-04-06T02:17:30;9.47;;;5.63;;
64633;SDS011;51043;52.406;9.690;2023-04-06T02:19:58;8.80;;;5.50;;
64633;SDS011;51043;52.406;9.690;2023-04-06T02:22:29;12.67;;;6.07;;
64633;SDS011;51043;52.406;9.690;2023-04-06T02:24:58;9.10;;;5.80;;
64633;SDS011;51043;52.406;9.690;2023-04-06T02:27:27;8.83;;;5.97;;
64633;SDS011;51043;52.406;9.690;2023-04-06T02:29:57;11.30;;;6.30;;
64633;SDS011;51043;52.406;9.690;2023-04-06T02:32:25;8.60;;;5.97;;
64633;SDS011;51043;52.406;9.690;2023-04-06T02:34:54;8.37;;;5.67;;
64633;SDS011;51043;52.406;9.690;2023-04-06T02:37:22;8.07;;;5.30;;
64633;SDS011;51043;52.406;9.690;2023-04-06T02:39:51;8.03;;;4.80;;
64633;SDS011;51043;52.406;9.690;2023-04-06T02:42:20;8.57;;;5.60;;
64633;SDS011;51043;52.406;9.690;2023-04-06T02:44:50;11.10;;;5.00;;
64633;SDS011;51043;52.406;9.690;2023-04-06T02:47:23;6.27;;;5.10;;
64633;SDS011;51043;52.406;9.690;2023-04-06T02:49:51;9.67;;;5.13;;
64633;SDS011;51043;52.406;9.690;2023-04-06T02:52:19;6.37;;;4.73;;
64633;SDS011;51043;52.406;9.690;2023-04-06T02:54:47;8.83;;;4.83;;
64633;SDS011;51043;52.406;9.690;2023-04-06T02:57:23;12.43;;;5.30;;
64633;SDS011;51043;52.406;9.690;2023-04-06T02:59:52;7.83;;;5.33;;
64633;SDS011;51043;52.406;9.690;2023-04-06T03:02:28;8.60;;;4.77;;
64633;SDS011;51043;52.406;9.690;2023-04-06T03:05:04;6.10;;;4.80;;
64633;SDS011;51043;52.406;9.690;2023-04-06T03:07:36;8.50;;;4.70;;
64633;SDS011;51043;52.406;9.690;2023-04-06T03:10:09;7.07;;;5.10;;
64633;SDS011;51043;52.406;9.690;2023-04-06T03:12:37;8.63;;;5.60;;
64633;SDS011;51043;52.406;9.690;2023-04-06T03:15:16;6.20;;;4.97;;
64633;SDS011;51043;52.406;9.690;2023-04-06T03:17:51;6.97;;;4.83;;
64633;SDS011;51043;52.406;9.690;2023-04-06T03:20:30;7.60;;;5.47;;
64633;SDS011;51043;52.406;9.690;2023-04-06T03:22:58;7.53;;;5.00;;
64633;SDS011;51043;52.406;9.690;2023-04-06T03:25:34;10.20;;;5.50;;
64633;SDS011;51043;52.406;9.690;2023-04-06T03:28:05;7.77;;;5.27;;
64633;SDS011;51043;52.406;9.690;2023-04-06T03:30:41;11.40;;;5.90;;
64633;SDS011;51043;52.406;9.690;2023-04-06T03:33:11;7.50;;;5.70;;
64633;SDS011;51043;52.406;9.690;2023-04-06T03:35:48;6.77;;;5.63;;
64633;SDS011;51043;52.406;9.690;2023-04-06T03:38:18;7.67;;;5.60;;
64633;SDS011;51043;52.406;9.690;2023-04-06T03:40:46;10.57;;;5.60;;
64633;SDS011;51043;52.406;9.690;2023-04-06T03:43:18;7.00;;;5.73;;
64633;SDS011;51043;52.406;9.690;2023-04-06T03:45:47;8.53;;;5.37;;
64633;SDS011;51043;52.406;9.690;2023-04-06T03:48:16;8.77;;;6.23;;
64633;SDS011;51043;52.406;9.690;2023-04-06T03:50:45;9.20;;;6.13;;
64633;SDS011;51043;52.406;9.690;2023-04-06T03:53:13;7.87;;;6.10;;
64633;SDS011;51043;52.406;9.690;2023-04-06T03:55:41;11.00;;;5.97;;
64633;SDS011;51043;52.406;9.690;2023-04-06T03:58:09;8.50;;;5.77;;
64633;SDS011;51043;52.406;9.690;2023-04-06T04:00:37;13.83;;;5.97;;
64633;SDS011;51043;52.406;9.690;2023-04-06T04:03:05;7.87;;;5.53;;
64633;SDS011;51043;52.406;9.690;2023-04-06T04:05:35;9.43;;;6.10;;
64633;SDS011;51043;52.406;9.690;2023-04-06T04:08:06;8.47;;;5.90;;
64633;SDS011;51043;52.406;9.690;2023-04-06T04:10:34;10.10;;;6.27;;
64633;SDS011;51043;52.406;9.690;2023-04-06T04:13:02;9.13;;;5.67;;
64633;SDS011;51043;52.406;9.690;2023-04-06T04:15:33;9.30;;;6.27;;
64633;SDS011;51043;52.406;9.690;2023-04-06T04:18:01;8.43;;;6.27;;
64633;SDS011;51043;52.406;9.690;2023-04-06T04:20:31;11.23;;;6.33;;
64633;SDS011;51043;52.406;9.690;2023-04-06T04:23:02;7.57;;;5.80;;
64633;SDS011;51043;52.406;9.690;2023-04-06T04:25:33;10.93;;;6.27;;
64633;SDS011;51043;52.406;9.690;2023-04-06T04:28:02;8.73;;;6.50;;
64633;SDS011;51043;52.406;9.690;2023-04-06T04:30:34;9.40;;;6.67;;
64633;SDS011;51043;52.406;9.690;2023-04-06T04:33:07;13.80;;;7.17;;
64633;SDS011;51043;52.406;9.690;2023-04-06T04:35:38;11.30;;;7.13;;
64633;SDS011;51043;52.406;9.690;2023-04-06T04:38:09;9.60;;;7.23;;
64633;SDS011;51043;52.406;9.690;2023-04-06T04:40:40;10.00;;;6.73;;
64633;SDS011;51043;52.406;9.690;2023-04-06T04:43:10;11.10;;;7.70;;
64633;SDS011;51043;52.406;9.690;2023-04-06T04:45:40;14.53;;;8.67;;
64633;SDS011;51043;52.406;9.690;2023-04-06T04:48:24;11.63;;;8.10;;
64633;SDS011;51043;52.406;9.690;2023-04-06T04:50:57;18.30;;;8.57;;
64633;SDS011;51043;52.406;9.690;2023-04-06T04:53:34;13.47;;;8.73;;
64633;SDS011;51043;52.406;9.690;2023-04-06T04:56:13;12.37;;;8.53;;
64633;SDS011;51043;52.406;9.690;2023-04-06T04:58:43;17.67;;;8.97;;
64633;SDS011;51043;52.406;9.690;2023-04-06T05:01:11;13.37;;;9.07;;
64633;SDS011;51043;52.406;9.690;2023-04-06T05:03:44;12.27;;;8.97;;
64633;SDS011;51043;52.406;9.690;2023-04-06T05:06:14;13.80;;;8.43;;
64633;SDS011;51043;52.406;9.690;2023-04-06T05:08:44;13.53;;;8.53;;
64633;SDS011;51043;52.406;9.690;2023-04-06T05:11:12;11.73;;;8.40;;
64633;SDS011;51043;52.406;9.690;2023-04-06T05:13:44;13.83;;;8.43;;
64633;SDS011;51043;52.406;9.690;2023-04-06T05:16:17;13.23;;;8.60;;
64633;SDS011;51043;52.406;9.690;2023-04-06T05:18:46;13.10;;;8.90;;
64633;SDS011;51043;52.406;9.690;2023-04-06T05:21:15;15.50;;;9.43;;
64633;SDS011;51043;52.406;9.690;2023-04-06T05:24:05;13.63;;;8.77;;
64633;SDS011;51043;52.406;9.690;2023-04-06T05:26:35;16.27;;;8.97;;
64633;SDS011;51043;52.406;9.690;2023-04-06T05:29:10;18.07;;;8.60;;
64633;SDS011;51043;52.406;9.690;2023-04-06T05:31:39;14.73;;;8.60;;
64633;SDS011;51043;52.406;9.690;2023-04-06T05:34:09;13.37;;;8.37;;
64633;SDS011;51043;52.406;9.690;2023-04-06T05:36:38;9.33;;;7.60;;
64633;SDS011;51043;52.406;9.690;2023-04-06T05:39:17;9.83;;;7.40;;
64633;SDS011;51043;52.406;9.690;2023-04-06T05:41:50;12.13;;;7.07;;
64633;SDS011;51043;52.406;9.690;2023-04-06T05:44:30;10.37;;;6.53;;
64633;SDS011;51043;52.406;9.690;2023-04-06T05:47:06;12.13;;;6.53;;
64633;SDS011;51043;52.406;9.690;2023-04-06T05:49:36;12.67;;;6.80;;
64633;SDS011;51043;52.406;9.690;2023-04-06T05:52:10;5.97;;;5.30;;
64633;SDS011;51043;52.406;9.690;2023-04-06T05:54:44;9.97;;;5.83;;
64633;SDS011;51043;52.406;9.690;2023-04-06T05:57:12;9.60;;;6.20;;
64633;SDS011;51043;52.406;9.690;2023-04-06T05:59:40;10.77;;;6.13;;
64633;SDS011;51043;52.406;9.690;2023-04-06T06:02:10;13.90;;;5.53;;
64633;SDS011;51043;52.406;9.690;2023-04-06T06:04:42;11.43;;;6.07;;
64633;SDS011;51043;52.406;9.690;2023-04-06T06:07:11;9.80;;;5.57;;
64633;SDS011;51043;52.406;9.690;2023-04-06T06:09:47;8.47;;;5.53;;
64633;SDS011;51043;52.406;9.690;2023-04-06T06:12:26;6.67;;;5.03;;
64633;SDS011;51043;52.406;9.690;2023-04-06T06:14:54;7.43;;;5.27;;
64633;SDS011;51043;52.406;9.690;2023-04-06T06:17:25;11.60;;;5.50;;
64633;SDS011;51043;52.406;9.690;2023-04-06T06:19:54;6.70;;;5.50;;
64633;SDS011;51043;52.406;9.690;2023-04-06T06:22:22;11.10;;;5.40;;
64633;SDS011;51043;52.406;9.690;2023-04-06T06:24:53;8.87;;;5.10;;
64633;SDS011;51043;52.406;9.690;2023-04-06T06:27:22;6.23;;;5.43;;
64633;SDS011;51043;52.406;9.690;2023-04-06T06:29:51;14.90;;;5.80;;
64633;SDS011;51043;52.406;9.690;2023-04-06T06:32:21;8.43;;;4.53;;
64633;SDS011;51043;52.406;9.690;2023-04-06T06:34:53;9.43;;;5.53;;
64633;SDS011;51043;52.406;9.690;2023-04-06T06:37:21;8.70;;;4.87;;
64633;SDS011;51043;52.406;9.690;2023-04-06T06:39:53;7.93;;;5.53;;
64633;SDS011;51043;52.406;9.690;2023-04-06T06:42:21;7.73;;;4.67;;
64633;SDS011;51043;52.406;9.690;2023-04-06T06:45:00;8.67;;;5.27;;
64633;SDS011;51043;52.406;9.690;2023-04-06T06:47:28;8.27;;;5.10;;
64633;SDS011;51043;52.406;9.690;2023-04-06T06:49:57;6.80;;;5.00;;
64633;SDS011;51043;52.406;9.690;2023-04-06T06:52:25;7.73;;;5.00;;
64633;SDS011;51043;52.406;9.690;2023-04-06T06:54:58;7.00;;;5.00;;
64633;SDS011;51043;52.406;9.690;2023-04-06T06:57:27;10.20;;;5.07;;
64633;SDS011;51043;52.406;9.690;2023-04-06T06:59:56;8.67;;;4.97;;
64633;SDS011;51043;52.406;9.690;2023-04-06T07:02:27;5.57;;;4.30;;
64633;SDS011;51043;52.406;9.690;2023-04-06T07:04:55;5.73;;;4.40;;
64633;SDS011;51043;52.406;9.690;2023-04-06T07:07:23;5.30;;;4.57;;
64633;SDS011;51043;52.406;9.690;2023-04-06T07:09:54;8.37;;;5.07;;
64633;SDS011;51043;52.406;9.690;2023-04-06T07:12:23;7.97;;;4.77;;
64633;SDS011;51043;52.406;9.690;2023-04-06T07:14:51;7.00;;;4.60;;
64633;SDS011;51043;52.406;9.690;2023-04-06T07:17:20;8.80;;;4.33;;
64633;SDS011;51043;52.406;9.690;2023-04-06T07:19:48;7.40;;;4.37;;
64633;SDS011;51043;52.406;9.690;2023-04-06T07:22:16;6.10;;;4.33;;
64633;SDS011;51043;52.406;9.690;2023-04-06T07:24:45;6.20;;;4.13;;
64633;SDS011;51043;52.406;9.690;2023-04-06T07:27:13;10.63;;;4.10;;
64633;SDS011;51043;52.406;9.690;2023-04-06T07:29:44;7.50;;;4.37;;
64633;SDS011;51043;52.406;9.690;2023-04-06T07:32:12;6.57;;;3.90;;
64633;SDS011;51043;52.406;9.690;2023-04-06T07:34:41;6.33;;;4.20;;
64633;SDS011;51043;52.406;9.690;2023-04-06T07:37:11;10.07;;;4.33;;
64633;SDS011;51043;52.406;9.690;2023-04-06T07:39:39;4.97;;;4.13;;
64633;SDS011;51043;52.406;9.690;2023-04-06T07:42:10;6.73;;;4.20;;
64633;SDS011;51043;52.406;9.690;2023-04-06T07:44:38;5.88;;;4.07;;
64633;SDS011;51043;52.406;9.690;2023-04-06T07:47:08;8.30;;;3.92;;
64633;SDS011;51043;52.406;9.690;2023-04-06T07:49:37;6.32;;;4.35;;
64633;SDS011;51043;52.406;9.690;2023-04-06T07:52:05;7.57;;;4.43;;
64633;SDS011;51043;52.406;9.690;2023-04-06T07:54:36;4.95;;;3.95;;
64633;SDS011;51043;52.406;9.690;2023-04-06T07:57:04;7.40;;;4.03;;
64633;SDS011;51043;52.406;9.690;2023-04-06T07:59:32;4.65;;;3.95;;
64633;SDS011;51043;52.406;9.690;2023-04-06T08:02:00;5.40;;;4.55;;
64633;SDS011;51043;52.406;9.690;2023-04-06T08:04:30;7.95;;;4.70;;
64633;SDS011;51043;52.406;9.690;2023-04-06T08:06:58;7.78;;;4.13;;
64633;SDS011;51043;52.406;9.690;2023-04-06T08:09:26;7.80;;;3.95;;
64633;SDS011;51043;52.406;9.690;2023-04-06T08:11:54;5.40;;;4.40;;
64633;SDS011;51043;52.406;9.690;2023-04-06T08:14:22;4.60;;;3.67;;
64633;SDS011;51043;52.406;9.690;2023-04-06T08:16:50;5.40;;;4.20;;
64633;SDS011;51043;52.406;9.690;2023-04-06T08:19:18;5.55;;;4.10;;
64633;SDS011;51043;52.406;9.690;2023-04-06T08:21:47;5.47;;;4.00;;
64633;SDS011;51043;52.406;9.690;2023-04-06T08:24:17;7.95;;;4.22;;
64633;SDS011;51043;52.406;9.690;2023-04-06T08:26:45;6.05;;;4.10;;
64633;SDS011;51043;52.406;9.690;2023-04-06T08:29:14;7.30;;;4.28;;
64633;SDS011;51043;52.406;9.690;2023-04-06T08:31:43;5.53;;;4.30;;
64633;SDS011;51043;52.406;9.690;2023-04-06T08:34:11;8.95;;;4.68;;
64633;SDS011;51043;52.406;9.690;2023-04-06T08:36:39;5.32;;;4.20;;
64633;SDS011;51043;52.406;9.690;2023-04-06T08:39:08;6.70;;;4.43;;
64633;SDS011;51043;52.406;9.690;2023-04-06T08:41:37;6.10;;;4.07;;
64633;SDS011;51043;52.406;9.690;2023-04-06T08:44:05;6.45;;;4.40;;
64633;SDS011;51043;52.406;9.690;2023-04-06T08:46:33;5.57;;;4.25;;
64633;SDS011;51043;52.406;9.690;2023-04-06T08:49:01;6.28;;;4.35;;
64633;SDS011;51043;52.406;9.690;2023-04-06T08:51:32;8.57;;;4.63;;
64633;SDS011;51043;52.406;9.690;2023-04-06T08:54:02;7.57;;;4.50;;
64633;SDS011;51043;52.406;9.690;2023-04-06T08:56:31;6.55;;;4.43;;
64633;SDS011;51043;52.406;9.690;2023-04-06T08:59:00;7.03;;;4.00;;
64633;SDS011;51043;52.406;9.690;2023-04-06T09:01:29;5.00;;;4.45;;
64633;SDS011;51043;52.406;9.690;2023-04-06T09:03:58;8.05;;;4.55;;
64633;SDS011;51043;52.406;9.690;2023-04-06T09:06:27;9.43;;;4.45;;
64633;SDS011;51043;52.406;9.690;2023-04-06T09:08:56;5.32;;;4.30;;
64633;SDS011;51043;52.406;9.690;2023-04-06T09:11:25;4.95;;;4.20;;
64633;SDS011;51043;52.406;9.690;2023-04-06T09:13:54;6.95;;;4.30;;
64633;SDS011;51043;52.406;9.690;2023-04-06T09:16:23;5.97;;;4.68;;
64633;SDS011;51043;52.406;9.690;2023-04-06T09:18:52;8.18;;;4.20;;
64633;SDS011;51043;52.406;9.690;2023-04-06T09:21:21;6.78;;;4.32;;
64633;SDS011;51043;52.406;9.690;2023-04-06T09:23:58;8.68;;;4.40;;
64633;SDS011;51043;52.406;9.690;2023-04-06T09:26:26;13.38;;;4.47;;
64633;SDS011;51043;52.406;9.690;2023-04-06T09:28:56;11.10;;;6.43;;
64633;SDS011;51043;52.406;9.690;2023-04-06T09:31:27;7.63;;;4.80;;
64633;SDS011;51043;52.406;9.690;2023-04-06T09:33:56;5.65;;;4.35;;
64633;SDS011;51043;52.406;9.690;2023-04-06T09:36:31;6.93;;;4.80;;
64633;SDS011;51043;52.406;9.690;2023-04-06T09:39:01;8.52;;;4.75;;
64633;SDS011;51043;52.406;9.690;2023-04-06T09:41:34;5.75;;;4.13;;
64633;SDS011;51043;52.406;9.690;2023-04-06T09:44:04;8.05;;;4.75;;
64633;SDS011;51043;52.406;9.690;2023-04-06T09:46:36;5.70;;;4.75;;
64633;SDS011;51043;52.406;9.690;2023-04-06T09:49:12;7.45;;;5.03;;
64633;SDS011;51043;52.406;9.690;2023-04-06T09:51:45;6.78;;;4.80;;
64633;SDS011;51043;52.406;9.690;2023-04-06T09:54:15;7.60;;;4.90;;
64633;SDS011;51043;52.406;9.690;2023-04-06T09:56:50;7.40;;;4.72;;
64633;SDS011;51043;52.406;9.690;2023-04-06T09:59:25;5.47;;;4.55;;
64633;SDS011;51043;52.406;9.690;2023-04-06T10:01:59;8.98;;;4.53;;
64633;SDS011;51043;52.406;9.690;2023-04-06T10:04:32;7.95;;;4.80;;
64633;SDS011;51043;52.406;9.690;2023-04-06T10:07:09;6.97;;;4.72;;
64633;SDS011;51043;52.406;9.690;2023-04-06T10:09:39;10.07;;;4.95;;
64633;SDS011;51043;52.406;9.690;2023-04-06T10:12:07;10.75;;;5.03;;
64633;SDS011;51043;52.406;9.690;2023-04-06T10:14:38;8.88;;;4.95;;
64633;SDS011;51043;52.406;9.690;2023-04-06T10:17:07;7.07;;;4.68;;
64633;SDS011;51043;52.406;9.690;2023-04-06T10:19:39;8.82;;;4.80;;
64633;SDS011;51043;52.406;9.690;2023-04-06T10:22:18;5.93;;;4.72;;
64633;SDS011;51043;52.406;9.690;2023-04-06T10:24:52;5.68;;;5.07;;
64633;SDS011;51043;52.406;9.690;2023-04-06T10:27:27;7.68;;;5.03;;
64633;SDS011;51043;52.406;9.690;2023-04-06T10:30:01;8.02;;;4.85;;
64633;SDS011;51043;52.406;9.690;2023-04-06T10:32:34;13.60;;;5.55;;
64633;SDS011;51043;52.406;9.690;2023-04-06T10:35:07;8.00;;;4.88;;
64633;SDS011;51043;52.406;9.690;2023-04-06T10:37:49;8.45;;;5.18;;
64633;SDS011;51043;52.406;9.690;2023-04-06T10:40:22;7.75;;;5.60;;
64633;SDS011;51043;52.406;9.690;2023-04-06T10:42:52;7.85;;;5.47;;
64633;SDS011;51043;52.406;9.690;2023-04-06T10:45:26;7.72;;;5.10;;
64633;SDS011;51043;52.406;9.690;2023-04-06T10:47:58;7.10;;;5.20;;
64633;SDS011;51043;52.406;9.690;2023-04-06T10:50:26;5.78;;;4.78;;
64633;SDS011;51043;52.406;9.690;2023-04-06T10:53:01;9.18;;;5.03;;
64633;SDS011;51043;52.406;9.690;2023-04-06T10:55:30;6.68;;;5.30;;
64633;SDS011;51043;52.406;9.690;2023-04-06T10:57:58;5.82;;;4.85;;
64633;SDS011;51043;52.406;9.690;2023-04-06T11:00:34;7.55;;;5.38;;
64633;SDS011;51043;52.406;9.690;2023-04-06T11:03:12;5.68;;;5.07;;
64633;SDS011;51043;52.406;9.690;2023-04-06T11:05:43;7.20;;;5.20;;
64633;SDS011;51043;52.406;9.690;2023-04-06T11:08:21;6.65;;;5.00;;
64633;SDS011;51043;52.406;9.690;2023-04-06T11:10:50;6.70;;;5.57;;
64633;SDS011;51043;52.406;9.690;2023-04-06T11:13:18;7.53;;;5.30;;
64633;SDS011;51043;52.406;9.690;2023-04-06T11:15:48;7.97;;;5.95;;
64633;SDS011;51043;52.406;9.690;2023-04-06T11:18:17;7.07;;;5.97;;
64633;SDS011;51043;52.406;9.690;2023-04-06T11:20:47;6.90;;;5.65;;
64633;SDS011;51043;52.406;9.690;2023-04-06T11:23:22;8.48;;;5.80;;
64633;SDS011;51043;52.406;9.690;2023-04-06T11:25:51;9.68;;;5.68;;
64633;SDS011;51043;52.406;9.690;2023-04-06T11:28:20;7.13;;;6.28;;
64633;SDS011;51043;52.406;9.690;2023-04-06T11:30:49;7.60;;;6.28;;
64633;SDS011;51043;52.406;9.690;2023-04-06T11:33:20;8.75;;;5.82;;
64633;SDS011;51043;52.406;9.690;2023-04-06T11:35:48;7.75;;;6.40;;
64633;SDS011;51043;52.406;9.690;2023-04-06T11:38:17;8.77;;;6.13;;
64633;SDS011;51043;52.406;9.690;2023-04-06T11:40:46;8.77;;;5.93;;
64633;SDS011;51043;52.406;9.690;2023-04-06T11:43:25;8.02;;;6.22;;
64633;SDS011;51043;52.406;9.690;2023-04-06T11:46:00;6.78;;;5.85;;
64633;SDS011;51043;52.406;9.690;2023-04-06T11:48:30;9.20;;;5.57;;
64633;SDS011;51043;52.406;9.690;2023-04-06T11:51:11;8.43;;;6.20;;
64633;SDS011;51043;52.406;9.690;2023-04-06T11:53:51;7.90;;;5.82;;
64633;SDS011;51043;52.406;9.690;2023-04-06T11:56:23;8.40;;;6.00;;
64633;SDS011;51043;52.406;9.690;2023-04-06T11:58:52;7.45;;;5.70;;
64633;SDS011;51043;52.406;9.690;2023-04-06T12:01:25;7.47;;;6.07;;
64633;SDS011;51043;52.406;9.690;2023-04-06T12:03:53;9.70;;;6.60;;
64633;SDS011;51043;52.406;9.690;2023-04-06T12:06:25;6.40;;;5.72;;
64633;SDS011;51043;52.406;9.690;2023-04-06T12:08:53;10.50;;;6.28;;
64633;SDS011;51043;52.406;9.690;2023-04-06T12:11:21;8.02;;;6.05;;
64633;SDS011;51043;52.406;9.690;2023-04-06T12:13:49;11.13;;;6.43;;
64633;SDS011;51043;52.406;9.690;2023-04-06T12:16:19;8.80;;;6.05;;
64633;SDS011;51043;52.406;9.690;2023-04-06T12:18:48;7.25;;;5.80;;
64633;SDS011;51043;52.406;9.690;2023-04-06T12:21:16;10.27;;;5.65;;
64633;SDS011;51043;52.406;9.690;2023-04-06T12:23:44;11.02;;;6.05;;
64633;SDS011;51043;52.406;9.690;2023-04-06T12:26:12;7.78;;;5.90;;
64633;SDS011;51043;52.406;9.690;2023-04-06T12:28:41;7.55;;;6.05;;
64633;SDS011;51043;52.406;9.690;2023-04-06T12:31:14;7.47;;;6.32;;
64633;SDS011;51043;52.406;9.690;2023-04-06T12:33:43;7.47;;;6.03;;
64633;SDS011;51043;52.406;9.690;2023-04-06T12:36:13;11.15;;;6.45;;
64633;SDS011;51043;52.406;9.690;2023-04-06T12:38:42;9.55;;;6.10;;
64633;SDS011;51043;52.406;9.690;2023-04-06T12:41:11;10.05;;;6.40;;
64633;SDS011;51043;52.406;9.690;2023-04-06T12:43:40;6.97;;;6.28;;
64633;SDS011;51043;52.406;9.690;2023-04-06T12:46:09;8.02;;;6.15;;
64633;SDS011;51043;52.406;9.690;2023-04-06T12:48:38;9.13;;;6.60;;
64633;SDS011;51043;52.406;9.690;2023-04-06T12:51:06;9.25;;;6.00;;
64633;SDS011;51043;52.406;9.690;2023-04-06T12:53:36;7.72;;;6.18;;
64633;SDS011;51043;52.406;9.690;2023-04-06T12:56:10;7.18;;;5.70;;
64633;SDS011;51043;52.406;9.690;2023-04-06T12:58:39;8.45;;;6.05;;
64633;SDS011;51043;52.406;9.690;2023-04-06T13:01:08;6.90;;;5.93;;
64633;SDS011;51043;52.406;9.690;2023-04-06T13:03:37;7.72;;;6.38;;
64633;SDS011;51043;52.406;9.690;2023-04-06T13:06:06;10.52;;;5.97;;
64633;SDS011;51043;52.406;9.690;2023-04-06T13:08:34;6.65;;;5.95;;
64633;SDS011;51043;52.406;9.690;2023-04-06T13:11:04;7.68;;;6.28;;
64633;SDS011;51043;52.406;9.690;2023-04-06T13:13:34;7.72;;;6.40;;
64633;SDS011;51043;52.406;9.690;2023-04-06T13:16:03;8.57;;;6.03;;
64633;SDS011;51043;52.406;9.690;2023-04-06T13:18:33;7.53;;;6.32;;
64633;SDS011;51043;52.406;9.690;2023-04-06T13:21:05;11.77;;;6.85;;
64633;SDS011;51043;52.406;9.690;2023-04-06T13:23:33;9.32;;;6.57;;
64633;SDS011;51043;52.406;9.690;2023-04-06T13:26:03;7.05;;;6.22;;
64633;SDS011;51043;52.406;9.690;2023-04-06T13:28:33;7.78;;;6.45;;
64633;SDS011;51043;52.406;9.690;2023-04-06T13:31:03;8.25;;;6.68;;
64633;SDS011;51043;52.406;9.690;2023-04-06T13:33:32;7.45;;;6.60;;
64633;SDS011;51043;52.406;9.690;2023-04-06T13:36:00;9.02;;;6.82;;
64633;SDS011;51043;52.406;9.690;2023-04-06T13:38:29;8.23;;;6.78;;
64633;SDS011;51043;52.406;9.690;2023-04-06T13:40:57;8.48;;;6.03;;
64633;SDS011;51043;52.406;9.690;2023-04-06T13:43:26;8.27;;;6.35;;
64633;SDS011;51043;52.406;9.690;2023-04-06T13:45:54;9.85;;;6.88;;
64633;SDS011;51043;52.406;9.690;2023-04-06T13:48:24;7.55;;;6.50;;
64633;SDS011;51043;52.406;9.690;2023-04-06T13:50:52;7.82;;;6.32;;
64633;SDS011;51043;52.406;9.690;2023-04-06T13:53:20;7.25;;;6.10;;
64633;SDS011;51043;52.406;9.690;2023-04-06T13:55:54;8.00;;;6.43;;
64633;SDS011;51043;52.406;9.690;2023-04-06T13:58:22;7.82;;;6.50;;
64633;SDS011;51043;52.406;9.690;2023-04-06T14:00:53;9.52;;;6.60;;
64633;SDS011;51043;52.406;9.690;2023-04-06T14:03:21;9.02;;;6.53;;
64633;SDS011;51043;52.406;9.690;2023-04-06T14:05:50;7.10;;;6.38;;
64633;SDS011;51043;52.406;9.690;2023-04-06T14:08:18;9.20;;;7.10;;
64633;SDS011;51043;52.406;9.690;2023-04-06T14:10:46;10.07;;;6.40;;
64633;SDS011;51043;52.406;9.690;2023-04-06T14:13:14;10.50;;;7.10;;
64633;SDS011;51043;52.406;9.690;2023-04-06T14:15:43;8.43;;;6.18;;
64633;SDS011;51043;52.406;9.690;2023-04-06T14:18:12;13.55;;;6.25;;
64633;SDS011;51043;52.406;9.690;2023-04-06T14:20:40;8.87;;;6.20;;
64633;SDS011;51043;52.406;9.690;2023-04-06T14:23:08;9.73;;;6.50;;
64633;SDS011;51043;52.406;9.690;2023-04-06T14:25:36;7.60;;;6.38;;
64633;SDS011;51043;52.406;9.690;2023-04-06T14:28:04;9.52;;;7.07;;
64633;SDS011;51043;52.406;9.690;2023-04-06T14:30:32;8.03;;;6.70;;
64633;SDS011;51043;52.406;9.690;2023-04-06T14:33:00;7.97;;;6.80;;
64633;SDS011;51043;52.406;9.690;2023-04-06T14:35:29;8.07;;;6.97;;
64633;SDS011;51043;52.406;9.690;2023-04-06T14:37:58;8.30;;;6.67;;
64633;SDS011;51043;52.406;9.690;2023-04-06T14:40:27;12.63;;;7.07;;
64633;SDS011;51043;52.406;9.690;2023-04-06T14:42:55;9.47;;;7.00;;
64633;SDS011;51043;52.406;9.690;2023-04-06T14:45:23;10.43;;;6.40;;
64633;SDS011;51043;52.406;9.690;2023-04-06T14:47:52;8.17;;;6.60;;
64633;SDS011;51043;52.406;9.690;2023-04-06T14:50:20;9.03;;;6.10;;
64633;SDS011;51043;52.406;9.690;2023-04-06T14:52:50;10.33;;;6.93;;
64633;SDS011;51043;52.406;9.690;2023-04-06T14:55:21;8.20;;;6.47;;
64633;SDS011;51043;52.406;9.690;2023-04-06T14:57:49;9.93;;;6.70;;
64633;SDS011;51043;52.406;9.690;2023-04-06T15:00:17;9.80;;;6.43;;
64633;SDS011;51043;52.406;9.690;2023-04-06T15:02:46;8.98;;;7.13;;
64633;SDS011;51043;52.406;9.690;2023-04-06T15:05:15;11.60;;;6.67;;